Time;durP1;ratioP1;P1;durP2;ratioP2;P2;SDS_P1;SDS_P2;PMS_P1;PMS_P2;Temp;Humidity;BMP_temperature;BMP_pressure;BME280_temperature;BME280_humidity;BME280_pressure;Samples;Min_cycle;Max_cycle;Signal;HPM_P1;HPM_P2
2024/03/04 00:00:10;;;;;;;24.42;15.57;;;;;;;8.51;61.84;94652.25;5027158;28;20057;-78
2024/03/04 00:02:36;;;;;;;30.20;16.15;;;;;;;8.47;61.73;94637.09;5025468;28;20109;-77
2024/03/04 00:05:01;;;;;;;27.67;16.60;;;;;;;8.46;61.97;94655.50;5026764;28;20033;-79
2024/03/04 00:07:26;;;;;;;27.05;17.13;;;;;;;8.38;62.19;94651.41;5030751;28;20468;-78
2024/03/04 00:09:52;;;;;;;25.27;16.33;;;;;;;8.39;62.05;94644.72;5030571;28;20029;-77
2024/03/04 00:12:18;;;;;;;27.88;16.70;;;;;;;8.39;61.72;94642.00;5031087;28;20444;-77
2024/03/04 00:14:43;;;;;;;30.13;17.35;;;;;;;8.46;61.55;94641.81;5028793;28;20036;-79
2024/03/04 00:17:09;;;;;;;22.35;15.23;;;;;;;8.42;61.60;94637.63;5030857;28;20021;-78
2024/03/04 00:19:36;;;;;;;27.98;15.98;;;;;;;8.38;61.55;94634.22;5030604;28;20033;-77
2024/03/04 00:22:03;;;;;;;26.80;15.85;;;;;;;8.35;61.58;94626.81;5030482;28;20558;-77
2024/03/04 00:24:28;;;;;;;27.33;16.33;;;;;;;8.35;61.54;94629.56;5030619;28;20056;-77
2024/03/04 00:26:54;;;;;;;26.70;15.38;;;;;;;8.36;61.36;94631.13;5030890;28;20421;-76
2024/03/04 00:29:19;;;;;;;24.98;15.35;;;;;;;8.24;61.80;94635.28;5029326;28;20380;-77
2024/03/04 00:31:45;;;;;;;24.60;16.02;;;;;;;8.05;62.03;94614.25;5030131;28;20017;-78
2024/03/04 00:34:10;;;;;;;25.45;15.65;;;;;;;8.03;62.23;94624.84;5030626;28;20029;-76
2024/03/04 00:36:35;;;;;;;22.95;15.32;;;;;;;8.13;61.71;94621.09;5030022;28;20087;-77
2024/03/04 00:39:01;;;;;;;23.90;15.60;;;;;;;7.97;62.45;94628.13;5030433;28;20030;-78
2024/03/04 00:41:27;;;;;;;28.08;15.75;;;;;;;7.94;62.68;94622.72;5030424;28;20017;-78
2024/03/04 00:43:53;;;;;;;28.45;16.92;;;;;;;7.83;63.35;94622.97;5030260;28;20531;-77
2024/03/04 00:46:19;;;;;;;31.90;19.60;;;;;;;7.71;63.81;94613.47;5029962;28;20033;-78
2024/03/04 00:48:45;;;;;;;30.88;17.48;;;;;;;7.76;63.59;94611.41;5030057;28;20052;-77
2024/03/04 00:51:12;;;;;;;25.98;16.02;;;;;;;7.79;63.71;94622.28;5030105;28;20492;-79
2024/03/04 00:53:44;;;;;;;26.02;15.82;;;;;;;7.74;63.79;94620.03;5044682;28;20041;-79
2024/03/04 00:56:11;;;;;;;28.35;15.35;;;;;;;7.73;63.30;94615.75;5028675;28;20076;-78
2024/03/04 00:58:37;;;;;;;26.70;15.98;;;;;;;7.76;63.04;94617.66;5029519;28;20033;-78
2024/03/04 01:01:03;;;;;;;27.00;14.77;;;;;;;7.77;63.09;94615.69;5044870;28;20036;-78
2024/03/04 01:03:28;;;;;;;26.60;15.90;;;;;;;7.77;63.13;94612.97;5028402;28;20029;-78
2024/03/04 01:05:54;;;;;;;24.90;15.60;;;;;;;7.78;63.08;94622.69;5029388;28;20472;-77
2024/03/04 01:08:19;;;;;;;26.60;17.25;;;;;;;7.70;64.22;94633.06;5029781;28;20026;-77
2024/03/04 01:10:45;;;;;;;25.20;16.23;;;;;;;7.65;64.08;94608.94;5029262;28;20029;-76
2024/03/04 01:13:11;;;;;;;30.70;17.00;;;;;;;7.59;64.19;94624.31;5030211;28;20026;-76
2024/03/04 01:15:37;;;;;;;27.20;15.88;;;;;;;7.45;64.05;94615.22;5029482;28;20104;-77
2024/03/04 01:18:02;;;;;;;26.63;16.23;;;;;;;7.44;63.95;94615.63;5028916;28;20125;-76
2024/03/04 01:20:28;;;;;;;25.02;14.90;;;;;;;7.47;63.73;94623.00;5029432;28;20059;-78
2024/03/04 01:22:54;;;;;;;28.60;15.88;;;;;;;7.41;63.77;94625.47;5029328;28;20111;-78
2024/03/04 01:25:19;;;;;;;28.85;17.02;;;;;;;7.39;63.53;94607.94;5029463;28;20604;-78
2024/03/04 01:27:45;;;;;;;28.02;16.85;;;;;;;7.45;62.91;94628.91;5029154;28;20022;-78
2024/03/04 01:30:13;;;;;;;30.63;18.42;;;;;;;7.36;63.35;94622.47;5029444;28;20124;-77
2024/03/04 01:32:39;;;;;;;25.95;16.40;;;;;;;7.45;62.54;94625.38;5028832;28;20030;-78
2024/03/04 01:35:07;;;;;;;27.90;16.65;;;;;;;7.43;62.40;94622.31;5028191;28;20040;-78
2024/03/04 01:37:33;;;;;;;26.65;16.83;;;;;;;7.35;62.48;94626.41;5029191;28;20080;-77
2024/03/04 01:39:58;;;;;;;29.33;18.00;;;;;;;7.27;63.17;94620.28;5044757;28;20416;-78
2024/03/04 01:42:25;;;;;;;33.08;17.70;;;;;;;7.18;63.35;94625.56;5028742;28;20392;-78
2024/03/04 01:44:50;;;;;;;31.17;17.50;;;;;;;7.24;63.15;94625.84;5029119;28;20029;-78
2024/03/04 01:47:20;;;;;;;25.08;16.55;;;;;;;7.15;62.79;94621.72;5027604;28;20099;-78
2024/03/04 01:49:46;;;;;;;26.48;16.70;;;;;;;7.09;63.26;94617.94;5027614;28;20029;-77
2024/03/04 01:52:12;;;;;;;26.40;16.75;;;;;;;6.99;63.78;94615.41;5029567;28;20029;-78
2024/03/04 01:54:38;;;;;;;28.08;16.35;;;;;;;7.05;64.51;94636.34;5044095;28;20037;-76
2024/03/04 01:57:05;;;;;;;31.20;17.85;;;;;;;7.05;64.85;94636.34;5030567;28;20056;-78
2024/03/04 01:59:31;;;;;;;27.80;16.40;;;;;;;6.98;64.79;94636.50;5046903;28;20522;-77
2024/03/04 02:01:56;;;;;;;30.80;17.80;;;;;;;6.99;65.09;94635.31;5028145;28;20108;-76
2024/03/04 02:04:22;;;;;;;25.83;16.42;;;;;;;7.07;65.08;94642.19;5044131;28;20404;-77
2024/03/04 02:06:49;;;;;;;27.83;16.63;;;;;;;7.07;64.16;94625.03;5028293;28;20032;-78
2024/03/04 02:09:15;;;;;;;28.67;17.17;;;;;;;7.12;63.72;94632.72;5029032;28;20064;-78
2024/03/04 02:11:41;;;;;;;27.02;16.25;;;;;;;6.95;64.41;94633.84;5027055;28;20200;-78
2024/03/04 02:14:06;;;;;;;29.67;17.25;;;;;;;6.85;64.97;94628.16;5028892;28;20090;-77
2024/03/04 02:16:32;;;;;;;33.63;18.00;;;;;;;6.82;65.36;94614.56;5028498;28;20186;-79
2024/03/04 02:18:57;;;;;;;26.52;17.15;;;;;;;6.81;65.50;94632.16;5028386;28;20056;-77
2024/03/04 02:21:24;;;;;;;25.83;16.70;;;;;;;6.86;65.07;94629.72;5028275;28;20037;-77
2024/03/04 02:23:50;;;;;;;28.33;16.52;;;;;;;6.93;64.83;94634.25;5043506;28;20030;-77
2024/03/04 02:26:17;;;;;;;30.40;17.17;;;;;;;6.99;64.64;94623.59;5028414;28;20499;-77
2024/03/04 02:28:42;;;;;;;28.77;17.40;;;;;;;7.00;64.89;94636.88;5027015;28;20056;-77
2024/03/04 02:31:10;;;;;;;30.05;17.90;;;;;;;6.95;64.60;94631.13;5028052;28;20580;-77
2024/03/04 02:33:37;;;;;;;29.50;17.23;;;;;;;6.99;64.47;94638.03;5027765;28;20026;-77
2024/03/04 02:36:05;;;;;;;27.77;17.02;;;;;;;7.01;63.93;94640.38;5028407;28;20090;-78
2024/03/04 02:38:31;;;;;;;27.10;15.70;;;;;;;6.95;63.98;94645.56;5027908;28;20443;-78
2024/03/04 02:40:59;;;;;;;26.77;15.35;;;;;;;7.00;63.74;94645.06;5026739;28;20082;-78
2024/03/04 02:43:26;;;;;;;27.95;16.52;;;;;;;7.01;63.48;94646.59;5027999;28;20041;-78
2024/03/04 02:45:51;;;;;;;27.42;16.45;;;;;;;6.96;63.22;94638.91;5027471;28;20053;-77
2024/03/04 02:48:17;;;;;;;25.65;16.27;;;;;;;6.98;62.86;94647.44;5028266;28;20061;-77
2024/03/04 02:50:42;;;;;;;26.73;16.17;;;;;;;7.00;62.79;94650.53;5027581;28;20052;-78
2024/03/04 02:53:09;;;;;;;28.13;16.70;;;;;;;6.97;62.50;94648.63;5027646;28;20021;-78
2024/03/04 02:55:37;;;;;;;28.98;16.67;;;;;;;6.97;62.39;94650.59;5027611;28;20048;-77
2024/03/04 02:58:08;;;;;;;26.50;16.35;;;;;;;6.97;62.13;94650.59;5027397;28;20049;-78
2024/03/04 03:00:34;;;;;;;27.15;16.08;;;;;;;6.94;62.09;94652.22;5010341;28;20444;-78
2024/03/04 03:03:00;;;;;;;24.77;16.60;;;;;;;6.93;62.14;94658.84;5027127;28;20383;-77
2024/03/04 03:05:26;;;;;;;28.25;17.02;;;;;;;6.93;61.99;94658.84;5027409;28;20021;-76
2024/03/04 03:07:52;;;;;;;28.25;16.83;;;;;;;6.77;61.74;94643.16;5027342;28;20032;-77
2024/03/04 03:10:17;;;;;;;27.42;16.83;;;;;;;6.86;61.57;94656.25;5027455;28;20138;-77
2024/03/04 03:12:42;;;;;;;25.20;16.25;;;;;;;6.82;61.32;94655.56;5027511;28;20138;-77
2024/03/04 03:15:08;;;;;;;25.15;15.27;;;;;;;6.80;61.48;94652.47;5025775;28;20068;-78
2024/03/04 03:17:36;;;;;;;26.10;15.68;;;;;;;6.76;61.77;94646.28;5027609;28;20111;-77
2024/03/04 03:20:12;;;;;;;26.92;16.73;;;;;;;6.66;61.54;94639.88;5027224;28;20372;-78
2024/03/04 03:22:38;;;;;;;28.80;17.00;;;;;;;6.69;61.70;94651.91;5027847;28;20029;-78
2024/03/04 03:25:04;;;;;;;28.38;16.38;;;;;;;6.67;61.73;94654.28;5026891;28;20033;-76
2024/03/04 03:27:30;;;;;;;27.23;14.73;;;;;;;6.57;61.75;94661.47;5027210;28;20031;-76
2024/03/04 03:29:55;;;;;;;26.55;15.55;;;;;;;6.50;62.43;94667.84;5026984;28;20120;-78
2024/03/04 03:32:21;;;;;;;29.13;16.88;;;;;;;6.43;62.42;94657.06;5026900;28;20052;-78
2024/03/04 03:34:46;;;;;;;26.23;16.50;;;;;;;6.50;62.47;94667.06;5027057;28;20033;-78
2024/03/04 03:37:12;;;;;;;27.90;17.42;;;;;;;6.46;62.78;94669.84;5026602;28;20417;-78
2024/03/04 03:39:38;;;;;;;29.38;17.08;;;;;;;6.34;63.25;94665.00;5027577;28;20026;-78
2024/03/04 03:42:07;;;;;;;30.42;15.63;;;;;;;6.42;63.14;94671.09;5026145;28;20440;-78
2024/03/04 03:44:33;;;;;;;30.42;16.40;;;;;;;6.35;63.37;94672.00;5027124;28;20518;-77
2024/03/04 03:46:58;;;;;;;27.92;16.40;;;;;;;6.36;63.35;94676.25;5026827;28;20053;-79
2024/03/04 03:49:23;;;;;;;26.60;15.32;;;;;;;6.37;63.36;94672.38;5026920;28;20450;-77
2024/03/04 03:51:49;;;;;;;25.15;15.95;;;;;;;6.34;63.57;94670.47;5026738;28;20041;-77
2024/03/04 03:54:14;;;;;;;26.65;15.95;;;;;;;6.43;63.29;94669.94;5026658;28;20060;-77
2024/03/04 03:56:40;;;;;;;29.90;17.20;;;;;;;6.37;63.26;94675.88;5027005;28;20108;-79
2024/03/04 03:59:06;;;;;;;27.55;15.48;;;;;;;6.41;62.95;94683.22;5026478;28;20543;-77
2024/03/04 04:01:31;;;;;;;28.65;16.15;;;;;;;6.27;63.44;94676.81;5027427;28;20022;-77
2024/03/04 04:03:57;;;;;;;25.65;16.00;;;;;;;6.33;63.09;94679.84;5026638;28;20026;-78
2024/03/04 04:06:22;;;;;;;29.60;16.98;;;;;;;6.38;63.00;94682.09;5025454;28;20108;-78
2024/03/04 04:08:48;;;;;;;26.42;15.48;;;;;;;6.32;62.93;94681.03;5028024;28;20444;-78
2024/03/04 04:11:13;;;;;;;30.15;17.23;;;;;;;6.28;62.66;94683.03;5028148;28;20049;-77
2024/03/04 04:13:38;;;;;;;27.60;16.42;;;;;;;6.26;62.65;94685.41;5028798;28;20030;-78
2024/03/04 04:16:04;;;;;;;26.15;15.50;;;;;;;6.29;62.38;94679.88;5029178;28;20242;-78
2024/03/04 04:18:29;;;;;;;28.27;16.27;;;;;;;6.21;62.80;94677.69;5029621;28;20029;-78
2024/03/04 04:20:55;;;;;;;26.35;15.38;;;;;;;6.27;62.66;94673.31;5029642;28;20025;-78
2024/03/04 04:23:20;;;;;;;26.63;16.33;;;;;;;6.27;62.26;94673.31;5029395;28;20323;-78
2024/03/04 04:25:45;;;;;;;24.52;15.45;;;;;;;6.21;62.31;94667.56;5025225;28;20060;-77
2024/03/04 04:28:11;;;;;;;28.27;15.60;;;;;;;6.29;62.08;94679.88;5026921;28;20523;-77
2024/03/04 04:30:38;;;;;;;28.55;16.35;;;;;;;6.17;62.48;94685.16;5042090;28;20025;-79
2024/03/04 04:33:04;;;;;;;29.25;16.52;;;;;;;6.07;62.68;94684.91;5026485;28;20029;-78
2024/03/04 04:35:29;;;;;;;27.92;17.02;;;;;;;6.06;63.74;94691.56;5026365;28;20037;-78
2024/03/04 04:37:55;;;;;;;27.45;15.55;;;;;;;6.05;63.65;94687.28;5026493;28;20029;-78
2024/03/04 04:40:20;;;;;;;26.48;15.55;;;;;;;5.98;63.87;94690.13;5026581;28;20488;-77
2024/03/04 04:42:46;;;;;;;26.65;15.57;;;;;;;6.00;63.15;94690.47;5025866;28;20108;-77
2024/03/04 04:45:11;;;;;;;29.02;15.57;;;;;;;6.01;63.53;94677.59;5026477;28;20048;-76
2024/03/04 04:47:37;;;;;;;27.50;15.40;;;;;;;6.00;64.09;94686.97;5026316;28;20500;-78
2024/03/04 04:50:03;;;;;;;25.45;14.93;;;;;;;5.96;63.53;94689.75;5026235;28;20454;-79
2024/03/04 04:52:28;;;;;;;25.75;14.98;;;;;;;5.97;64.02;94696.78;5042245;28;20056;-77
2024/03/04 04:54:54;;;;;;;28.42;15.75;;;;;;;5.97;63.42;94679.63;5029773;28;20144;-77
2024/03/04 04:57:20;;;;;;;26.60;15.75;;;;;;;6.02;62.96;94693.59;5028316;28;20042;-77
2024/03/04 04:59:46;;;;;;;31.80;15.00;;;;;;;6.07;62.67;94693.09;5028739;28;20535;-78
2024/03/04 05:02:11;;;;;;;29.33;15.05;;;;;;;6.06;62.40;94691.56;5030315;28;20052;-77
2024/03/04 05:04:36;;;;;;;24.98;14.05;;;;;;;6.15;61.96;94690.28;5029417;28;20064;-78
2024/03/04 05:07:02;;;;;;;26.85;14.30;;;;;;;6.07;61.91;94693.09;5030053;28;20080;-77
2024/03/04 05:09:27;;;;;;;26.58;15.50;;;;;;;6.09;62.04;94696.19;5029423;28;20039;-79
2024/03/04 05:11:53;;;;;;;23.92;14.35;;;;;;;5.96;63.54;94699.91;5029788;28;20113;-77
2024/03/04 05:14:19;;;;;;;24.70;15.60;;;;;;;5.97;64.10;94704.97;5030009;28;20021;-78
2024/03/04 05:16:44;;;;;;;32.22;15.35;;;;;;;5.77;63.71;94704.81;5030539;28;20029;-77
2024/03/04 05:19:10;;;;;;;27.60;15.80;;;;;;;5.78;63.69;94717.28;5032457;28;20407;-78
2024/03/04 05:21:35;;;;;;;26.80;16.15;;;;;;;5.80;64.16;94716.88;5033056;28;20018;-80
2024/03/04 05:24:00;;;;;;;25.95;16.10;;;;;;;5.79;64.70;94724.28;5031840;28;20033;-78
2024/03/04 05:26:26;;;;;;;24.10;15.13;;;;;;;5.83;63.87;94721.50;5028152;28;20026;-78
2024/03/04 05:28:51;;;;;;;25.40;15.38;;;;;;;5.92;63.16;94727.25;5029463;28;20075;-77
2024/03/04 05:31:18;;;;;;;27.33;14.20;;;;;;;5.91;63.01;94722.16;5029267;28;20024;-78
2024/03/04 05:33:45;;;;;;;26.65;14.68;;;;;;;5.91;62.88;94720.25;5029220;28;20388;-77
2024/03/04 05:36:11;;;;;;;28.77;15.55;;;;;;;5.99;62.67;94712.72;5029628;28;20032;-79
2024/03/04 05:38:36;;;;;;;25.48;14.32;;;;;;;6.04;62.28;94715.78;5028731;28;20021;-78
2024/03/04 05:41:02;;;;;;;22.63;14.10;;;;;;;6.07;62.30;94716.88;5029606;28;20033;-76
2024/03/04 05:43:27;;;;;;;24.65;14.98;;;;;;;6.10;62.03;94719.56;5028605;28;20044;-78
2024/03/04 05:45:53;;;;;;;23.92;14.90;;;;;;;6.09;62.30;94720.00;5029380;28;20518;-80
2024/03/04 05:48:19;;;;;;;28.75;15.27;;;;;;;6.16;62.08;94721.84;5028933;28;20025;-78
2024/03/04 05:50:45;;;;;;;25.92;14.80;;;;;;;6.23;62.01;94724.44;5029108;28;20743;-78
2024/03/04 05:53:12;;;;;;;25.20;14.35;;;;;;;6.28;61.81;94722.03;5029386;28;20103;-78
2024/03/04 05:55:37;;;;;;;27.90;14.73;;;;;;;6.26;61.74;94713.50;5028329;28;20032;-77
2024/03/04 05:58:03;;;;;;;32.35;15.45;;;;;;;6.33;61.59;94720.78;5029371;28;20041;-77
2024/03/04 06:00:31;;;;;;;22.45;13.98;;;;;;;6.39;61.70;94713.66;5028885;28;20033;-78
2024/03/04 06:02:57;;;;;;;27.40;15.07;;;;;;;6.39;61.87;94713.66;5029143;28;20100;-77
2024/03/04 06:05:23;;;;;;;26.63;15.07;;;;;;;6.29;61.95;94715.38;5028012;28;20551;-79
2024/03/04 06:07:48;;;;;;;26.05;14.98;;;;;;;6.27;62.29;94717.00;5028634;28;20018;-78
2024/03/04 06:10:13;;;;;;;27.50;15.75;;;;;;;6.34;62.16;94711.41;5028977;28;20026;-79
2024/03/04 06:12:39;;;;;;;25.85;14.88;;;;;;;6.38;62.24;94715.63;5028505;28;20056;-79
2024/03/04 06:15:05;;;;;;;24.45;15.27;;;;;;;6.44;62.35;94717.91;5029292;28;20088;-77
2024/03/04 06:17:30;;;;;;;21.85;14.32;;;;;;;6.51;62.19;94717.78;5028248;28;20031;-78
2024/03/04 06:19:56;;;;;;;27.08;16.00;;;;;;;6.51;62.54;94715.03;5029026;28;20480;-79
2024/03/04 06:22:21;;;;;;;26.52;16.52;;;;;;;6.57;62.11;94714.13;5028177;28;20030;-78
2024/03/04 06:24:47;;;;;;;28.88;15.98;;;;;;;6.60;62.32;94721.53;5028709;28;20032;-78
2024/03/04 06:27:12;;;;;;;22.20;14.95;;;;;;;6.63;62.32;94712.47;5028246;28;20037;-79
2024/03/04 06:29:37;;;;;;;26.38;16.02;;;;;;;6.71;62.27;94713.16;5028224;28;20025;-78
2024/03/04 06:32:04;;;;;;;27.05;16.13;;;;;;;6.76;62.25;94714.59;5028423;28;20021;-78
2024/03/04 06:34:30;;;;;;;26.98;15.45;;;;;;;6.89;62.05;94716.31;5027795;28;20040;-77
2024/03/04 06:36:58;;;;;;;24.38;15.65;;;;;;;7.00;62.11;94712.63;5028644;28;20040;-76
2024/03/04 06:39:23;;;;;;;29.80;16.42;;;;;;;7.07;62.23;94721.47;5027498;28;20457;-77
2024/03/04 06:41:50;;;;;;;30.48;16.55;;;;;;;7.15;62.74;94720.13;5028456;28;20036;-78
2024/03/04 06:44:16;;;;;;;25.20;16.38;;;;;;;7.19;63.13;94717.34;5027845;28;20029;-80
2024/03/04 06:46:41;;;;;;;31.10;18.95;;;;;;;7.21;63.29;94714.94;5026557;28;20039;-78
2024/03/04 06:49:07;;;;;;;30.25;18.55;;;;;;;7.30;63.62;94723.38;5028032;28;20021;-80
2024/03/04 06:51:35;;;;;;;31.75;19.25;;;;;;;7.38;63.59;94710.31;5027368;28;20122;-78
2024/03/04 06:54:04;;;;;;;30.38;19.17;;;;;;;7.47;63.77;94721.47;5028422;28;20200;-79
2024/03/04 06:56:30;;;;;;;31.20;19.38;;;;;;;7.56;63.82;94718.91;5027231;28;20041;-78
2024/03/04 06:58:57;;;;;;;35.50;19.85;;;;;;;7.70;63.79;94724.09;5028053;28;20447;-79
2024/03/04 07:01:23;;;;;;;33.25;20.15;;;;;;;7.77;64.05;94712.25;5027702;28;20033;-78
2024/03/04 07:03:48;;;;;;;33.85;19.70;;;;;;;7.88;64.03;94726.47;5027412;28;20106;-77
2024/03/04 07:06:13;;;;;;;32.72;20.02;;;;;;;7.99;63.80;94718.78;5027140;28;20026;-77
2024/03/04 07:08:42;;;;;;;30.70;18.77;;;;;;;8.12;63.81;94721.63;5027339;28;20026;-77
2024/03/04 07:11:15;;;;;;;30.75;20.75;;;;;;;8.21;63.63;94723.78;5027968;28;20032;-79
2024/03/04 07:13:43;;;;;;;34.70;21.33;;;;;;;8.31;63.59;94722.75;5026023;28;20148;-78
2024/03/04 07:16:11;;;;;;;31.20;20.77;;;;;;;8.36;63.50;94716.03;5027327;28;20128;-77
2024/03/04 07:18:37;;;;;;;36.40;21.38;;;;;;;8.53;63.32;94712.09;5027383;28;20032;-78
2024/03/04 07:21:02;;;;;;;38.83;23.23;;;;;;;8.65;62.96;94707.88;5027718;28;20422;-80
2024/03/04 07:23:27;;;;;;;42.92;23.60;;;;;;;8.75;62.88;94713.09;5027016;28;20157;-78
2024/03/04 07:25:53;;;;;;;39.83;23.80;;;;;;;8.83;62.77;94710.97;5027380;28;20414;-82
2024/03/04 07:28:19;;;;;;;37.22;22.08;;;;;;;8.96;62.88;94719.25;5027295;28;20029;-78
2024/03/04 07:30:45;;;;;;;35.10;22.17;;;;;;;9.09;62.55;94708.31;5027565;28;20117;-78
2024/03/04 07:33:11;;;;;;;33.60;21.20;;;;;;;9.17;62.23;94702.22;5026357;28;20108;-78
2024/03/04 07:35:40;;;;;;;32.05;20.20;;;;;;;9.34;61.84;94710.38;5025223;28;20088;-79
2024/03/04 07:38:06;;;;;;;38.28;21.60;;;;;;;9.53;61.16;94720.44;5025864;28;20026;-79
2024/03/04 07:40:31;;;;;;;33.72;21.67;;;;;;;9.58;60.98;94708.94;5027010;28;20111;-78
2024/03/04 07:42:57;;;;;;;37.28;22.00;;;;;;;9.74;60.59;94719.81;5025777;28;20021;-78
2024/03/04 07:45:22;;;;;;;33.00;20.83;;;;;;;9.87;60.46;94710.84;5026896;28;20534;-78
2024/03/04 07:47:48;;;;;;;32.63;21.33;;;;;;;10.08;59.39;94712.94;5026606;28;20060;-78
2024/03/04 07:50:14;;;;;;;29.13;17.23;;;;;;;10.22;57.99;94709.78;5027235;28;20629;-78
2024/03/04 07:52:39;;;;;;;26.70;16.60;;;;;;;10.34;57.51;94711.78;5026500;28;20543;-78
2024/03/04 07:55:07;;;;;;;23.42;14.93;;;;;;;10.40;57.22;94712.00;5027194;28;20025;-78
2024/03/04 07:57:32;;;;;;;24.25;14.60;;;;;;;10.51;57.05;94714.41;5026298;28;20057;-78
2024/03/04 07:59:58;;;;;;;23.75;14.85;;;;;;;10.57;57.14;94707.91;5026771;28;20047;-76
2024/03/04 08:02:23;;;;;;;22.27;14.02;;;;;;;10.75;56.99;94704.56;5026533;28;20030;-78
2024/03/04 08:04:48;;;;;;;24.42;14.95;;;;;;;10.93;56.69;94708.69;5026954;28;20026;-77
2024/03/04 08:07:14;;;;;;;22.45;13.65;;;;;;;10.97;56.44;94696.38;5026703;28;20077;-78
2024/03/04 08:09:39;;;;;;;21.20;14.05;;;;;;;11.22;55.85;94708.50;5026234;28;20514;-78
2024/03/04 08:12:06;;;;;;;18.00;12.55;;;;;;;11.35;54.95;94698.19;5027282;28;20034;-78
2024/03/04 08:14:31;;;;;;;21.10;12.48;;;;;;;11.47;55.23;94696.59;5026436;28;20080;-79
2024/03/04 08:16:56;;;;;;;25.40;14.80;;;;;;;11.62;54.72;94690.13;5026605;28;20061;-78
2024/03/04 08:19:22;;;;;;;23.50;14.40;;;;;;;11.83;54.02;94688.59;5026448;28;20029;-78
2024/03/04 08:21:47;;;;;;;21.98;14.27;;;;;;;12.00;53.88;94686.41;5026860;28;20061;-79
2024/03/04 08:24:13;;;;;;;22.75;13.30;;;;;;;12.26;52.61;94680.69;5026445;28;20041;-80
2024/03/04 08:26:38;;;;;;;19.90;12.68;;;;;;;12.45;51.76;94683.06;5026141;28;20034;-78
2024/03/04 08:29:04;;;;;;;16.73;11.18;;;;;;;12.68;51.69;94689.25;5029191;28;20028;-78
2024/03/04 08:31:31;;;;;;;19.25;11.68;;;;;;;12.95;49.47;94689.28;5030099;28;20419;-79
2024/03/04 08:33:56;;;;;;;17.77;10.82;;;;;;;13.16;48.54;94684.84;5030974;28;20514;-79
2024/03/04 08:36:22;;;;;;;19.08;11.85;;;;;;;13.41;48.43;94681.03;5030310;28;20025;-78
2024/03/04 08:38:47;;;;;;;18.25;12.18;;;;;;;13.74;48.22;94675.63;5030541;28;20503;-79
2024/03/04 08:41:13;;;;;;;18.10;10.90;;;;;;;14.06;47.02;94674.16;5029067;28;20033;-79
2024/03/04 08:43:40;;;;;;;17.33;11.30;;;;;;;14.19;46.68;94676.72;5030179;28;20079;-79
2024/03/04 08:46:05;;;;;;;15.40;10.73;;;;;;;14.40;45.79;94669.44;5031040;28;20022;-79
2024/03/04 08:48:30;;;;;;;17.77;10.98;;;;;;;14.73;45.72;94672.19;5030230;28;20460;-78
2024/03/04 08:50:56;;;;;;;16.75;11.88;;;;;;;14.87;45.11;94667.97;5030811;28;20049;-79
2024/03/04 08:53:22;;;;;;;19.88;11.43;;;;;;;15.21;44.97;94663.09;5030377;28;20033;-78
2024/03/04 08:55:48;;;;;;;17.50;12.55;;;;;;;15.45;43.87;94669.34;5045561;28;20037;-78
2024/03/04 08:58:13;;;;;;;25.80;13.20;;;;;;;15.65;43.84;94661.22;5029788;28;20030;-78
2024/03/04 09:00:38;;;;;;;18.23;12.35;;;;;;;15.93;44.02;94658.13;5029477;28;20498;-78
2024/03/04 09:03:05;;;;;;;19.92;13.00;;;;;;;16.36;42.35;94666.91;5030435;28;20022;-78
2024/03/04 09:05:31;;;;;;;18.77;11.63;;;;;;;16.73;41.63;94659.66;5029287;28;20121;-78
2024/03/04 09:08:02;;;;;;;19.17;11.45;;;;;;;17.09;40.13;94665.16;5030416;28;20026;-78
2024/03/04 09:10:29;;;;;;;17.60;11.43;;;;;;;17.41;39.96;94658.47;5029417;28;20036;-79
2024/03/04 09:12:55;;;;;;;16.25;10.90;;;;;;;17.85;39.92;94656.69;5028547;28;20021;-80
2024/03/04 09:15:21;;;;;;;14.68;11.57;;;;;;;18.32;38.57;94652.53;5029627;28;20021;-79
2024/03/04 09:17:46;;;;;;;15.50;10.63;;;;;;;18.81;37.31;94648.59;5029372;28;20021;-79
2024/03/04 09:20:12;;;;;;;15.13;11.00;;;;;;;19.40;35.53;94658.22;5029631;28;20049;-79
2024/03/04 09:22:38;;;;;;;16.48;11.20;;;;;;;20.07;34.85;94657.59;5029170;28;20033;-80
2024/03/04 09:25:04;;;;;;;16.52;10.75;;;;;;;20.79;33.67;94651.28;5029769;28;20092;-80
2024/03/04 09:27:31;;;;;;;18.27;11.20;;;;;;;21.59;31.89;94658.91;5029292;28;20127;-80
2024/03/04 09:29:56;;;;;;;18.77;10.23;;;;;;;22.40;30.59;94667.06;5029864;28;20022;-79
2024/03/04 09:32:21;;;;;;;13.95;11.02;;;;;;;23.11;29.75;94657.75;5029565;28;20400;-77
2024/03/04 09:34:47;;;;;;;14.70;11.18;;;;;;;23.93;28.45;94660.06;5029113;28;20029;-79
2024/03/04 09:37:12;;;;;;;15.95;10.88;;;;;;;24.38;27.00;94653.81;5029486;28;20040;-78
2024/03/04 09:39:38;;;;;;;12.95;10.68;;;;;;;24.10;27.91;94651.41;5028366;28;20033;-78
2024/03/04 09:42:04;;;;;;;16.90;10.93;;;;;;;24.17;28.20;94652.84;5029422;28;20479;-78
2024/03/04 09:44:30;;;;;;;16.38;11.73;;;;;;;24.81;26.55;94653.59;5029033;28;20519;-79
2024/03/04 09:46:58;;;;;;;15.02;11.57;;;;;;;25.74;25.57;94650.81;5029421;28;20480;-79
2024/03/04 09:49:24;;;;;;;15.23;11.40;;;;;;;26.53;24.86;94649.81;5027515;28;20223;-79
2024/03/04 09:51:51;;;;;;;17.48;11.65;;;;;;;27.32;23.83;94645.00;5029075;28;20055;-78
2024/03/04 09:54:17;;;;;;;15.40;11.40;;;;;;;27.81;22.69;94641.31;5029340;28;20022;-79
2024/03/04 09:56:42;;;;;;;12.65;11.10;;;;;;;28.26;22.82;94638.63;5027071;28;20856;-78
2024/03/04 09:59:08;;;;;;;16.38;12.07;;;;;;;28.83;21.70;94637.59;5029030;28;20041;-77
2024/03/04 10:01:35;;;;;;;14.05;11.15;;;;;;;29.38;21.03;94639.09;5028459;28;20029;-79
2024/03/04 10:04:01;;;;;;;14.43;10.93;;;;;;;29.77;20.49;94644.09;5029296;28;20017;-78
2024/03/04 10:06:27;;;;;;;11.98;10.48;;;;;;;29.34;21.14;94637.38;5043183;28;20054;-79
2024/03/04 10:08:53;;;;;;;15.07;11.82;;;;;;;29.08;21.17;94638.56;5044042;28;20547;-79
2024/03/04 10:11:18;;;;;;;14.85;12.27;;;;;;;29.94;20.32;94634.22;5028612;28;20155;-79
2024/03/04 10:13:43;;;;;;;16.42;12.50;;;;;;;30.52;20.08;94640.72;5028207;28;20083;-78
2024/03/04 10:16:13;;;;;;;15.98;11.70;;;;;;;30.87;19.29;94630.28;5043665;28;20367;-78
2024/03/04 10:18:38;;;;;;;14.90;11.82;;;;;;;31.18;19.10;94625.06;5028223;28;20552;-79
2024/03/04 10:21:04;;;;;;;14.65;11.77;;;;;;;30.49;19.22;94624.84;5028974;28;20109;-79
2024/03/04 10:23:29;;;;;;;15.32;11.63;;;;;;;30.89;19.34;94614.16;5027914;28;20048;-77
2024/03/04 10:26:08;;;;;;;15.43;11.43;;;;;;;31.46;18.70;94615.34;5028693;28;20032;-79
2024/03/04 10:28:40;;;;;;;15.23;12.02;;;;;;;31.76;18.53;94608.56;5028072;28;20052;-79
2024/03/04 10:31:11;;;;;;;15.05;11.45;;;;;;;32.02;18.08;94601.47;5028478;28;20113;-77
2024/03/04 10:33:39;;;;;;;16.17;10.65;;;;;;;32.32;18.01;94588.16;5026779;28;20037;-79
2024/03/04 10:36:21;;;;;;;11.63;10.40;;;;;;;32.04;17.45;94595.19;5028121;28;20037;-79
2024/03/04 10:38:47;;;;;;;12.43;10.95;;;;;;;31.97;18.02;94594.69;5028257;28;20032;-78
2024/03/04 10:41:17;;;;;;;14.13;11.13;;;;;;;32.11;17.82;94594.31;5027795;28;20034;-78
2024/03/04 10:43:46;;;;;;;13.45;10.93;;;;;;;32.32;17.70;94594.59;5028249;28;20052;-78
2024/03/04 10:46:12;;;;;;;12.52;10.80;;;;;;;32.93;16.90;94584.41;5027829;28;20567;-78
2024/03/04 10:48:39;;;;;;;13.85;11.45;;;;;;;33.32;16.65;94578.78;5027769;28;20030;-78
2024/03/04 10:51:05;;;;;;;14.07;10.63;;;;;;;32.58;17.01;94581.00;5025804;28;20235;-78
2024/03/04 10:53:30;;;;;;;11.95;10.60;;;;;;;32.88;17.06;94582.59;5027677;28;20395;-77
2024/03/04 10:56:04;;;;;;;14.00;10.35;;;;;;;32.65;17.34;94565.88;5043171;28;20377;-77
2024/03/04 10:58:31;;;;;;;14.52;11.48;;;;;;;32.90;17.38;94563.56;5027177;28;20087;-80
2024/03/04 11:00:57;;;;;;;15.55;11.05;;;;;;;33.63;16.81;94551.25;5027973;28;20108;-79
2024/03/04 11:03:24;;;;;;;14.65;11.30;;;;;;;33.99;15.91;94558.88;5027455;28;20520;-79
2024/03/04 11:05:50;;;;;;;14.40;10.88;;;;;;;34.19;16.22;94553.13;5027003;28;20272;-77
2024/03/04 11:08:27;;;;;;;12.95;10.20;;;;;;;33.80;16.22;94547.47;5028030;28;20064;-78
2024/03/04 11:11:00;;;;;;;13.00;10.55;;;;;;;34.06;15.71;94546.53;5026042;28;20026;-78
2024/03/04 11:13:32;;;;;;;13.60;10.90;;;;;;;34.22;15.65;94541.25;5010474;28;20029;-78
2024/03/04 11:16:04;;;;;;;13.30;10.25;;;;;;;34.23;15.69;94537.03;5027872;28;20443;-80